PWSweather.com
Personal Weather Stations
Station Observations
SD92115WX
El Cerrito Stoneybluff, San Diego, CA 92115

El Cerrito StoneybluffSan Diego, CA 92115

Lat: 32.754096, Lon: -117.066705

Elevation: 420

Station Type: Davis Vantage Vue

http://stoneybluff.com

High Low Average
Temperature 58.5°F14.7°C 50.9°F10.5°C 54.5°F12.5°C
Dew Point 49.5°F9.7°C 43.7°F6.5°C 46.6°F8.1°C
Winds 12.8 mph 20.6 kmh Calm Calm 4.0 mph SW6.4 kmh SW
Wind Gusts 18.1 mph29.1 kmh -- 8.0 mph12.9 kmh
Humidity 92% 62% 75%
Pressure 29.91 in1012.9 mb 29.85 in1010.8 mb -
Precipitation 0.18 in4.6 mm - -
Hour Temp Dew Point Humidity Winds Wind Gusts Pressure Precip Precip Rate Daily Precip Total
12:03 AM 54.1°F12.3°C 48.4°F9.1°C 81% 1.8 mph SW2.9 kmh SW 4.3 mph6.9 kmh 29.88 in1011.9 mb 0.00 in0.0 mm 0.00 in0.0 mm 0.00 in0.0 mm
12:08 AM 54.1°F12.3°C 48.4°F9.1°C 81% 2.0 mph WSW3.2 kmh WSW 5.4 mph8.7 kmh 29.88 in1011.9 mb 0.00 in0.0 mm 0.00 in0.0 mm 0.00 in0.0 mm
12:13 AM 54.1°F12.3°C 48.4°F9.1°C 81% 1.1 mph NW1.8 kmh NW 6.3 mph10.1 kmh 29.88 in1011.9 mb 0.00 in0.0 mm 0.00 in0.0 mm 0.00 in0.0 mm
12:18 AM 54.1°F12.3°C 48.4°F9.1°C 81% Calm Calm 3.1 mph5.0 kmh 29.89 in1012.2 mb 0.00 in0.0 mm 0.00 in0.0 mm 0.00 in0.0 mm
12:23 AM 54.1°F12.3°C 48.4°F9.1°C 81% 0.9 mph WNW1.4 kmh WNW 4.3 mph6.9 kmh 29.89 in1012.2 mb 0.00 in0.0 mm 0.00 in0.0 mm 0.00 in0.0 mm
12:28 AM 54.1°F12.3°C 48.4°F9.1°C 81% 1.8 mph ESE2.9 kmh ESE 4.3 mph6.9 kmh 29.88 in1011.9 mb 0.00 in0.0 mm 0.00 in0.0 mm 0.00 in0.0 mm
12:33 AM 54.1°F12.3°C 48.4°F9.1°C 81% 0.7 mph WSW1.1 kmh WSW 3.1 mph5.0 kmh 29.88 in1011.9 mb 0.00 in0.0 mm 0.00 in0.0 mm 0.00 in0.0 mm
12:38 AM 54.1°F12.3°C 48.4°F9.1°C 81% 1.1 mph SW1.8 kmh SW 7.4 mph11.9 kmh 29.88 in1011.9 mb 0.00 in0.0 mm 0.00 in0.0 mm 0.00 in0.0 mm
12:43 AM 54.1°F12.3°C 48.4°F9.1°C 81% 2.0 mph W3.2 kmh W 6.3 mph10.1 kmh 29.88 in1011.9 mb 0.00 in0.0 mm 0.00 in0.0 mm 0.00 in0.0 mm
12:48 AM 54.1°F12.3°C 48.7°F9.3°C 82% 3.6 mph WNW5.8 kmh WNW 7.4 mph11.9 kmh 29.88 in1011.9 mb 0.00 in0.0 mm 0.00 in0.0 mm 0.00 in0.0 mm
12:53 AM 54.0°F12.2°C 48.2°F9.0°C 81% 2.7 mph NW4.3 kmh NW 8.5 mph13.7 kmh 29.88 in1011.9 mb 0.00 in0.0 mm 0.00 in0.0 mm 0.00 in0.0 mm
12:58 AM 54.0°F12.2°C 48.2°F9.0°C 81% 4.7 mph WSW7.6 kmh WSW 8.5 mph13.7 kmh 29.87 in1011.5 mb 0.00 in0.0 mm 0.00 in0.0 mm 0.00 in0.0 mm
01:03 AM 54.0°F12.2°C 48.2°F9.0°C 81% 0.7 mph WSW1.1 kmh WSW 5.4 mph8.7 kmh 29.87 in1011.5 mb 0.00 in0.0 mm 0.00 in0.0 mm 0.00 in0.0 mm
01:08 AM 54.0°F12.2°C 48.2°F9.0°C 81% 1.3 mph W2.1 kmh W 6.3 mph10.1 kmh 29.87 in1011.5 mb 0.00 in0.0 mm 0.00 in0.0 mm 0.00 in0.0 mm
01:13 AM 54.0°F12.2°C 48.2°F9.0°C 81% 2.0 mph NW3.2 kmh NW 4.3 mph6.9 kmh 29.87 in1011.5 mb 0.00 in0.0 mm 0.00 in0.0 mm 0.00 in0.0 mm
01:18 AM 54.0°F12.2°C 48.2°F9.0°C 81% 0.4 mph WNW0.6 kmh WNW 4.3 mph6.9 kmh 29.87 in1011.5 mb 0.00 in0.0 mm 0.00 in0.0 mm 0.00 in0.0 mm
01:23 AM 54.0°F12.2°C 48.2°F9.0°C 81% 2.7 mph WSW4.3 kmh WSW 5.4 mph8.7 kmh 29.87 in1011.5 mb 0.00 in0.0 mm 0.00 in0.0 mm 0.00 in0.0 mm
01:28 AM 54.0°F12.2°C 48.0°F8.9°C 80% 2.2 mph WSW3.5 kmh WSW 9.6 mph15.4 kmh 29.87 in1011.5 mb 0.00 in0.0 mm 0.00 in0.0 mm 0.00 in0.0 mm
01:33 AM 54.0°F12.2°C 48.0°F8.9°C 80% 2.5 mph SW4.0 kmh SW 5.4 mph8.7 kmh 29.87 in1011.5 mb 0.00 in0.0 mm 0.00 in0.0 mm 0.00 in0.0 mm
01:38 AM 53.8°F12.1°C 47.5°F8.6°C 79% 2.0 mph SW3.2 kmh SW 6.3 mph10.1 kmh 29.87 in1011.5 mb 0.00 in0.0 mm 0.00 in0.0 mm 0.00 in0.0 mm
01:43 AM 53.8°F12.1°C 47.5°F8.6°C 79% 1.1 mph WNW1.8 kmh WNW 5.4 mph8.7 kmh 29.87 in1011.5 mb 0.00 in0.0 mm 0.00 in0.0 mm 0.00 in0.0 mm
01:48 AM 53.8°F12.1°C 47.1°F8.4°C 78% 1.1 mph SW1.8 kmh SW 4.3 mph6.9 kmh 29.86 in1011.2 mb 0.00 in0.0 mm 0.00 in0.0 mm 0.00 in0.0 mm
01:53 AM 53.8°F12.1°C 47.1°F8.4°C 78% 3.6 mph WNW5.8 kmh WNW 6.3 mph10.1 kmh 29.86 in1011.2 mb 0.00 in0.0 mm 0.00 in0.0 mm 0.00 in0.0 mm
01:58 AM 54.0°F12.2°C 47.3°F8.5°C 78% 2.2 mph WSW3.5 kmh WSW 5.4 mph8.7 kmh 29.86 in1011.2 mb 0.00 in0.0 mm 0.00 in0.0 mm 0.00 in0.0 mm
02:03 AM 54.0°F12.2°C 47.3°F8.5°C 78% 1.8 mph WSW2.9 kmh WSW 7.4 mph11.9 kmh 29.86 in1011.2 mb 0.00 in0.0 mm 0.00 in0.0 mm 0.00 in0.0 mm
02:08 AM 54.0°F12.2°C 47.3°F8.5°C 78% 2.9 mph WSW4.7 kmh WSW 7.4 mph11.9 kmh 29.86 in1011.2 mb 0.00 in0.0 mm 0.00 in0.0 mm 0.00 in0.0 mm
02:13 AM 54.0°F12.2°C 47.3°F8.5°C 78% 0.2 mph WSW0.3 kmh WSW 3.1 mph5.0 kmh 29.87 in1011.5 mb 0.00 in0.0 mm 0.00 in0.0 mm 0.00 in0.0 mm
02:18 AM 53.8°F12.1°C 47.1°F8.4°C 78% 1.8 mph NW2.9 kmh NW 5.4 mph8.7 kmh 29.86 in1011.2 mb 0.00 in0.0 mm 0.00 in0.0 mm 0.00 in0.0 mm
02:23 AM 53.8°F12.1°C 47.1°F8.4°C 78% 2.2 mph W3.5 kmh W 6.3 mph10.1 kmh 29.86 in1011.2 mb 0.00 in0.0 mm 0.00 in0.0 mm 0.00 in0.0 mm
02:28 AM 53.8°F12.1°C 46.8°F8.2°C 77% 1.8 mph WSW2.9 kmh WSW 6.3 mph10.1 kmh 29.86 in1011.2 mb 0.00 in0.0 mm 0.00 in0.0 mm 0.00 in0.0 mm
02:33 AM 53.8°F12.1°C 46.8°F8.2°C 77% Calm Calm 2.0 mph3.2 kmh 29.86 in1011.2 mb 0.00 in0.0 mm 0.00 in0.0 mm 0.00 in0.0 mm
02:38 AM 53.8°F12.1°C 46.8°F8.2°C 77% 0.4 mph SW0.6 kmh SW 5.4 mph8.7 kmh 29.86 in1011.2 mb 0.00 in0.0 mm 0.00 in0.0 mm 0.00 in0.0 mm
02:43 AM 53.6°F12.0°C 46.6°F8.1°C 77% 0.9 mph SW1.4 kmh SW 5.4 mph8.7 kmh 29.86 in1011.2 mb 0.00 in0.0 mm 0.00 in0.0 mm 0.00 in0.0 mm
02:48 AM 53.4°F11.9°C 46.4°F8.0°C 77% 0.4 mph W0.6 kmh W 5.4 mph8.7 kmh 29.86 in1011.2 mb 0.00 in0.0 mm 0.00 in0.0 mm 0.00 in0.0 mm
02:53 AM 53.4°F11.9°C 46.4°F8.0°C 77% 2.5 mph W4.0 kmh W 5.4 mph8.7 kmh 29.86 in1011.2 mb 0.00 in0.0 mm 0.00 in0.0 mm 0.00 in0.0 mm
02:58 AM 53.4°F11.9°C 46.4°F8.0°C 77% 2.5 mph W4.0 kmh W 5.4 mph8.7 kmh 29.86 in1011.2 mb 0.00 in0.0 mm 0.00 in0.0 mm 0.00 in0.0 mm
03:03 AM 53.4°F11.9°C 46.4°F8.0°C 77% 0.9 mph W1.4 kmh W 4.3 mph6.9 kmh 29.85 in1010.8 mb 0.00 in0.0 mm 0.00 in0.0 mm 0.00 in0.0 mm
03:08 AM 53.4°F11.9°C 46.4°F8.0°C 77% 0.4 mph WNW0.6 kmh WNW 4.3 mph6.9 kmh 29.86 in1011.2 mb 0.00 in0.0 mm 0.00 in0.0 mm 0.00 in0.0 mm
03:13 AM 53.4°F11.9°C 46.4°F8.0°C 77% 2.5 mph NW4.0 kmh NW 6.3 mph10.1 kmh 29.85 in1010.8 mb 0.00 in0.0 mm 0.00 in0.0 mm 0.00 in0.0 mm
03:18 AM 53.2°F11.8°C 46.2°F7.9°C 77% 1.8 mph WSW2.9 kmh WSW 3.1 mph5.0 kmh 29.85 in1010.8 mb 0.00 in0.0 mm 0.00 in0.0 mm 0.00 in0.0 mm
03:23 AM 53.2°F11.8°C 46.2°F7.9°C 77% Calm Calm 2.0 mph3.2 kmh 29.85 in1010.8 mb 0.00 in0.0 mm 0.00 in0.0 mm 0.00 in0.0 mm
03:28 AM 53.2°F11.8°C 46.2°F7.9°C 77% 1.6 mph WSW2.6 kmh WSW 5.4 mph8.7 kmh 29.85 in1010.8 mb 0.00 in0.0 mm 0.00 in0.0 mm 0.00 in0.0 mm
03:33 AM 53.2°F11.8°C 46.2°F7.9°C 77% 1.6 mph SW2.6 kmh SW 5.4 mph8.7 kmh 29.85 in1010.8 mb 0.00 in0.0 mm 0.00 in0.0 mm 0.00 in0.0 mm
03:38 AM 53.2°F11.8°C 46.2°F7.9°C 77% 2.0 mph SW3.2 kmh SW 5.4 mph8.7 kmh 29.85 in1010.8 mb 0.00 in0.0 mm 0.00 in0.0 mm 0.00 in0.0 mm
03:43 AM 53.2°F11.8°C 46.2°F7.9°C 77% 1.3 mph WSW2.1 kmh WSW 5.4 mph8.7 kmh 29.85 in1010.8 mb 0.00 in0.0 mm 0.00 in0.0 mm 0.00 in0.0 mm
03:48 AM 53.2°F11.8°C 46.2°F7.9°C 77% 0.9 mph WNW1.4 kmh WNW 4.3 mph6.9 kmh 29.85 in1010.8 mb 0.00 in0.0 mm 0.00 in0.0 mm 0.00 in0.0 mm
03:53 AM 53.2°F11.8°C 46.2°F7.9°C 77% Calm Calm 2.0 mph3.2 kmh 29.85 in1010.8 mb 0.00 in0.0 mm 0.00 in0.0 mm 0.00 in0.0 mm
03:58 AM 53.1°F11.7°C 45.7°F7.6°C 76% 0.7 mph W1.1 kmh W 4.3 mph6.9 kmh 29.85 in1010.8 mb 0.00 in0.0 mm 0.00 in0.0 mm 0.00 in0.0 mm
04:03 AM 53.1°F11.7°C 45.7°F7.6°C 76% 0.7 mph NW1.1 kmh NW 4.3 mph6.9 kmh 29.85 in1010.8 mb 0.00 in0.0 mm 0.00 in0.0 mm 0.00 in0.0 mm
04:08 AM 53.1°F11.7°C 45.3°F7.4°C 75% 1.8 mph NW2.9 kmh NW 5.4 mph8.7 kmh 29.85 in1010.8 mb 0.00 in0.0 mm 0.00 in0.0 mm 0.00 in0.0 mm
04:13 AM 53.1°F11.7°C 45.0°F7.2°C 74% 1.3 mph W2.1 kmh W 4.3 mph6.9 kmh 29.85 in1010.8 mb 0.00 in0.0 mm 0.00 in0.0 mm 0.00 in0.0 mm
04:18 AM 53.1°F11.7°C 45.3°F7.4°C 75% Calm Calm 2.0 mph3.2 kmh 29.85 in1010.8 mb 0.00 in0.0 mm 0.00 in0.0 mm 0.00 in0.0 mm
04:23 AM 52.9°F11.6°C 45.1°F7.3°C 75% Calm Calm 3.1 mph5.0 kmh 29.85 in1010.8 mb 0.00 in0.0 mm 0.00 in0.0 mm 0.00 in0.0 mm
04:28 AM 52.7°F11.5°C 45.0°F7.2°C 75% 0.2 mph WSW0.3 kmh WSW 1.1 mph1.8 kmh 29.86 in1011.2 mb 0.00 in0.0 mm 0.00 in0.0 mm 0.00 in0.0 mm
04:33 AM 52.5°F11.4°C 44.8°F7.1°C 75% Calm Calm 2.0 mph3.2 kmh 29.85 in1010.8 mb 0.00 in0.0 mm 0.00 in0.0 mm 0.00 in0.0 mm
04:38 AM 52.3°F11.3°C 44.6°F7.0°C 75% Calm Calm -- 29.85 in1010.8 mb 0.00 in0.0 mm 0.00 in0.0 mm 0.00 in0.0 mm
04:43 AM 52.2°F11.2°C 44.4°F6.9°C 75% Calm Calm -- 29.85 in1010.8 mb 0.00 in0.0 mm 0.00 in0.0 mm 0.00 in0.0 mm
04:48 AM 52.0°F11.1°C 44.6°F7.0°C 76% Calm Calm -- 29.85 in1010.8 mb 0.00 in0.0 mm 0.00 in0.0 mm 0.00 in0.0 mm
04:53 AM 51.6°F10.9°C 44.6°F7.0°C 77% Calm Calm -- 29.85 in1010.8 mb 0.00 in0.0 mm 0.00 in0.0 mm 0.00 in0.0 mm
04:58 AM 51.6°F10.9°C 45.0°F7.2°C 78% Calm Calm -- 29.85 in1010.8 mb 0.00 in0.0 mm 0.00 in0.0 mm 0.00 in0.0 mm
05:03 AM 51.4°F10.8°C 44.8°F7.1°C 78% Calm Calm -- 29.85 in1010.8 mb 0.00 in0.0 mm 0.00 in0.0 mm 0.00 in0.0 mm
05:08 AM 51.4°F10.8°C 45.1°F7.3°C 79% Calm Calm -- 29.85 in1010.8 mb 0.00 in0.0 mm 0.00 in0.0 mm 0.00 in0.0 mm
05:13 AM 51.3°F10.7°C 45.0°F7.2°C 79% Calm Calm -- 29.86 in1011.2 mb 0.00 in0.0 mm 0.00 in0.0 mm 0.00 in0.0 mm
05:18 AM 51.3°F10.7°C 45.0°F7.2°C 79% Calm Calm -- 29.86 in1011.2 mb 0.00 in0.0 mm 0.00 in0.0 mm 0.00 in0.0 mm
05:23 AM 51.3°F10.7°C 45.0°F7.2°C 79% Calm Calm -- 29.86 in1011.2 mb 0.00 in0.0 mm 0.00 in0.0 mm 0.00 in0.0 mm
05:28 AM 51.3°F10.7°C 45.0°F7.2°C 79% Calm Calm -- 29.86 in1011.2 mb 0.00 in0.0 mm 0.00 in0.0 mm 0.00 in0.0 mm
05:33 AM 51.4°F10.8°C 45.1°F7.3°C 79% Calm Calm 1.1 mph1.8 kmh 29.86 in1011.2 mb 0.00 in0.0 mm 0.00 in0.0 mm 0.00 in0.0 mm
05:38 AM 51.8°F11.0°C 45.5°F7.5°C 79% Calm Calm 2.0 mph3.2 kmh 29.86 in1011.2 mb 0.00 in0.0 mm 0.00 in0.0 mm 0.00 in0.0 mm
05:43 AM 52.2°F11.2°C 45.5°F7.5°C 78% 0.2 mph SE0.3 kmh SE 2.0 mph3.2 kmh 29.86 in1011.2 mb 0.00 in0.0 mm 0.00 in0.0 mm 0.00 in0.0 mm
05:48 AM 52.3°F11.3°C 45.7°F7.6°C 78% 0.7 mph SW1.1 kmh SW 2.0 mph3.2 kmh 29.86 in1011.2 mb 0.00 in0.0 mm 0.00 in0.0 mm 0.00 in0.0 mm
05:53 AM 52.5°F11.4°C 45.5°F7.5°C 77% 0.7 mph SW1.1 kmh SW 3.1 mph5.0 kmh 29.86 in1011.2 mb 0.00 in0.0 mm 0.00 in0.0 mm 0.00 in0.0 mm
05:58 AM 52.9°F11.6°C 45.9°F7.7°C 77% 0.2 mph SSE0.3 kmh SSE 4.3 mph6.9 kmh 29.86 in1011.2 mb 0.00 in0.0 mm 0.00 in0.0 mm 0.00 in0.0 mm
06:03 AM 53.1°F11.7°C 46.0°F7.8°C 77% Calm Calm -- 29.86 in1011.2 mb 0.00 in0.0 mm 0.00 in0.0 mm 0.00 in0.0 mm
06:08 AM 53.4°F11.9°C 46.4°F8.0°C 77% 0.9 mph SSE1.4 kmh SSE 5.4 mph8.7 kmh 29.87 in1011.5 mb 0.00 in0.0 mm 0.00 in0.0 mm 0.00 in0.0 mm
06:13 AM 53.6°F12.0°C 46.2°F7.9°C 76% 2.9 mph SW4.7 kmh SW 7.4 mph11.9 kmh 29.87 in1011.5 mb 0.00 in0.0 mm 0.00 in0.0 mm 0.00 in0.0 mm
06:18 AM 53.8°F12.1°C 46.0°F7.8°C 75% 2.9 mph SW4.7 kmh SW 6.3 mph10.1 kmh 29.87 in1011.5 mb 0.00 in0.0 mm 0.00 in0.0 mm 0.00 in0.0 mm
06:23 AM 54.0°F12.2°C 46.2°F7.9°C 75% 2.5 mph WSW4.0 kmh WSW 6.3 mph10.1 kmh 29.87 in1011.5 mb 0.00 in0.0 mm 0.00 in0.0 mm 0.00 in0.0 mm
06:28 AM 54.1°F12.3°C 46.4°F8.0°C 75% 4.3 mph WSW6.9 kmh WSW 8.5 mph13.7 kmh 29.87 in1011.5 mb 0.00 in0.0 mm 0.00 in0.0 mm 0.00 in0.0 mm
06:33 AM 54.1°F12.3°C 46.8°F8.2°C 76% 3.8 mph SSW6.1 kmh SSW 8.5 mph13.7 kmh 29.87 in1011.5 mb 0.00 in0.0 mm 0.00 in0.0 mm 0.00 in0.0 mm
06:38 AM 54.3°F12.4°C 46.6°F8.1°C 75% 7.4 mph SSW11.9 kmh SSW 10.5 mph16.9 kmh 29.87 in1011.5 mb 0.00 in0.0 mm 0.00 in0.0 mm 0.00 in0.0 mm
06:43 AM 54.1°F12.3°C 46.4°F8.0°C 75% 5.4 mph SW8.7 kmh SW 9.6 mph15.4 kmh 29.87 in1011.5 mb 0.00 in0.0 mm 0.00 in0.0 mm 0.00 in0.0 mm
06:48 AM 54.1°F12.3°C 46.4°F8.0°C 75% 2.0 mph SW3.2 kmh SW 8.5 mph13.7 kmh 29.87 in1011.5 mb 0.00 in0.0 mm 0.00 in0.0 mm 0.00 in0.0 mm
06:53 AM 54.0°F12.2°C 45.9°F7.7°C 74% 6.5 mph SW10.5 kmh SW 10.5 mph16.9 kmh 29.87 in1011.5 mb 0.00 in0.0 mm 0.00 in0.0 mm 0.00 in0.0 mm
06:58 AM 54.0°F12.2°C 46.2°F7.9°C 75% 3.1 mph SW5.0 kmh SW 10.5 mph16.9 kmh 29.87 in1011.5 mb 0.00 in0.0 mm 0.00 in0.0 mm 0.00 in0.0 mm
07:03 AM 54.3°F12.4°C 46.6°F8.1°C 75% 3.8 mph SW6.1 kmh SW 7.4 mph11.9 kmh 29.87 in1011.5 mb 0.00 in0.0 mm 0.00 in0.0 mm 0.00 in0.0 mm
07:08 AM 54.7°F12.6°C 46.6°F8.1°C 74% 5.4 mph SW8.7 kmh SW 9.6 mph15.4 kmh 29.87 in1011.5 mb 0.00 in0.0 mm 0.00 in0.0 mm 0.00 in0.0 mm
07:13 AM 54.7°F12.6°C 45.9°F7.7°C 72% 6.7 mph SSW10.8 kmh SSW 11.6 mph18.7 kmh 29.87 in1011.5 mb 0.00 in0.0 mm 0.00 in0.0 mm 0.00 in0.0 mm
07:18 AM 54.9°F12.7°C 46.0°F7.8°C 72% 6.9 mph SW11.1 kmh SW 11.6 mph18.7 kmh 29.88 in1011.9 mb 0.00 in0.0 mm 0.00 in0.0 mm 0.00 in0.0 mm
07:23 AM 54.9°F12.7°C 45.3°F7.4°C 70% 6.7 mph S10.8 kmh S 12.8 mph20.6 kmh 29.88 in1011.9 mb 0.00 in0.0 mm 0.00 in0.0 mm 0.00 in0.0 mm
07:28 AM 54.9°F12.7°C 45.7°F7.6°C 71% 4.3 mph W6.9 kmh W 10.5 mph16.9 kmh 29.88 in1011.9 mb 0.00 in0.0 mm 0.00 in0.0 mm 0.00 in0.0 mm
07:33 AM 55.0°F12.8°C 45.9°F7.7°C 71% 3.1 mph SW5.0 kmh SW 7.4 mph11.9 kmh 29.88 in1011.9 mb 0.00 in0.0 mm 0.00 in0.0 mm 0.00 in0.0 mm
07:38 AM 55.2°F12.9°C 45.7°F7.6°C 70% 7.2 mph S11.6 kmh S 10.5 mph16.9 kmh 29.88 in1011.9 mb 0.00 in0.0 mm 0.00 in0.0 mm 0.00 in0.0 mm
07:43 AM 55.2°F12.9°C 45.7°F7.6°C 70% 4.3 mph SSW6.9 kmh SSW 10.5 mph16.9 kmh 29.88 in1011.9 mb 0.00 in0.0 mm 0.00 in0.0 mm 0.00 in0.0 mm
07:48 AM 55.4°F13.0°C 45.9°F7.7°C 70% 4.5 mph SW7.2 kmh SW 8.5 mph13.7 kmh 29.88 in1011.9 mb 0.00 in0.0 mm 0.00 in0.0 mm 0.00 in0.0 mm
07:53 AM 55.2°F12.9°C 45.7°F7.6°C 70% 5.4 mph SW8.7 kmh SW 8.5 mph13.7 kmh 29.88 in1011.9 mb 0.00 in0.0 mm 0.00 in0.0 mm 0.00 in0.0 mm
07:58 AM 55.6°F13.1°C 45.5°F7.5°C 69% 5.4 mph SW8.7 kmh SW 9.6 mph15.4 kmh 29.88 in1011.9 mb 0.00 in0.0 mm 0.00 in0.0 mm 0.00 in0.0 mm
08:03 AM 55.8°F13.2°C 45.0°F7.2°C 67% 6.3 mph SW10.1 kmh SW 10.5 mph16.9 kmh 29.88 in1011.9 mb 0.00 in0.0 mm 0.00 in0.0 mm 0.00 in0.0 mm
08:08 AM 55.9°F13.3°C 44.4°F6.9°C 65% 4.7 mph SW7.6 kmh SW 12.8 mph20.6 kmh 29.88 in1011.9 mb 0.00 in0.0 mm 0.00 in0.0 mm 0.00 in0.0 mm
08:13 AM 56.1°F13.4°C 44.1°F6.7°C 64% 6.5 mph SW10.5 kmh SW 11.6 mph18.7 kmh 29.88 in1011.9 mb 0.00 in0.0 mm 0.00 in0.0 mm 0.00 in0.0 mm
08:18 AM 56.1°F13.4°C 43.7°F6.5°C 63% 6.7 mph SW10.8 kmh SW 13.9 mph22.4 kmh 29.88 in1011.9 mb 0.00 in0.0 mm 0.00 in0.0 mm 0.00 in0.0 mm
08:23 AM 56.1°F13.4°C 44.1°F6.7°C 64% 5.1 mph SSW8.2 kmh SSW 11.6 mph18.7 kmh 29.89 in1012.2 mb 0.00 in0.0 mm 0.00 in0.0 mm 0.00 in0.0 mm
08:28 AM 56.1°F13.4°C 45.0°F7.2°C 66% 5.1 mph S8.2 kmh S 13.9 mph22.4 kmh 29.89 in1012.2 mb 0.00 in0.0 mm 0.00 in0.0 mm 0.00 in0.0 mm
08:33 AM 56.1°F13.4°C 45.0°F7.2°C 66% 5.4 mph SW8.7 kmh SW 10.5 mph16.9 kmh 29.89 in1012.2 mb 0.00 in0.0 mm 0.00 in0.0 mm 0.00 in0.0 mm
08:38 AM 55.9°F13.3°C 45.5°F7.5°C 68% 6.3 mph SSW10.1 kmh SSW 11.6 mph18.7 kmh 29.89 in1012.2 mb 0.00 in0.0 mm 0.00 in0.0 mm 0.00 in0.0 mm
08:43 AM 55.8°F13.2°C 45.7°F7.6°C 69% 8.3 mph SW13.4 kmh SW 14.8 mph23.8 kmh 29.89 in1012.2 mb 0.00 in0.0 mm 0.00 in0.0 mm 0.00 in0.0 mm
08:48 AM 55.6°F13.1°C 45.5°F7.5°C 69% 7.8 mph SSW12.6 kmh SSW 12.8 mph20.6 kmh 29.89 in1012.2 mb 0.00 in0.0 mm 0.00 in0.0 mm 0.00 in0.0 mm
08:53 AM 55.2°F12.9°C 44.8°F7.1°C 68% 8.3 mph SSW13.4 kmh SSW 12.8 mph20.6 kmh 29.89 in1012.2 mb 0.00 in0.0 mm 0.00 in0.0 mm 0.00 in0.0 mm
08:58 AM 55.0°F12.8°C 44.6°F7.0°C 68% 7.2 mph SW11.6 kmh SW 12.8 mph20.6 kmh 29.89 in1012.2 mb 0.00 in0.0 mm 0.00 in0.0 mm 0.00 in0.0 mm
09:03 AM 55.0°F12.8°C 45.1°F7.3°C 69% 5.1 mph S8.2 kmh S 11.6 mph18.7 kmh 29.90 in1012.5 mb 0.00 in0.0 mm 0.00 in0.0 mm 0.00 in0.0 mm
09:08 AM 54.9°F12.7°C 45.3°F7.4°C 70% 6.7 mph SSW10.8 kmh SSW 12.8 mph20.6 kmh 29.89 in1012.2 mb 0.00 in0.0 mm 0.00 in0.0 mm 0.00 in0.0 mm
09:13 AM 54.9°F12.7°C 45.0°F7.2°C 69% 7.4 mph S11.9 kmh S 12.8 mph20.6 kmh 29.89 in1012.2 mb 0.00 in0.0 mm 0.00 in0.0 mm 0.00 in0.0 mm
09:18 AM 55.0°F12.8°C 44.6°F7.0°C 68% 7.6 mph SW12.2 kmh SW 11.6 mph18.7 kmh 29.90 in1012.5 mb 0.00 in0.0 mm 0.00 in0.0 mm 0.00 in0.0 mm
09:23 AM 55.0°F12.8°C 44.2°F6.8°C 67% 6.3 mph SW10.1 kmh SW 10.5 mph16.9 kmh 29.90 in1012.5 mb 0.00 in0.0 mm 0.00 in0.0 mm 0.00 in0.0 mm
09:28 AM 55.2°F12.9°C 44.4°F6.9°C 67% 5.1 mph SW8.2 kmh SW 11.6 mph18.7 kmh 29.90 in1012.5 mb 0.00 in0.0 mm 0.00 in0.0 mm 0.00 in0.0 mm
09:33 AM 55.2°F12.9°C 44.4°F6.9°C 67% 7.2 mph SW11.6 kmh SW 11.6 mph18.7 kmh 29.89 in1012.2 mb 0.00 in0.0 mm 0.00 in0.0 mm 0.00 in0.0 mm
09:38 AM 55.2°F12.9°C 44.1°F6.7°C 66% 3.6 mph SSW5.8 kmh SSW 7.4 mph11.9 kmh 29.89 in1012.2 mb 0.00 in0.0 mm 0.00 in0.0 mm 0.00 in0.0 mm
09:43 AM 55.4°F13.0°C 44.2°F6.8°C 66% 6.5 mph WSW10.5 kmh WSW 10.5 mph16.9 kmh 29.90 in1012.5 mb 0.00 in0.0 mm 0.00 in0.0 mm 0.00 in0.0 mm
09:48 AM 55.6°F13.1°C 44.1°F6.7°C 65% 5.6 mph SSW9.0 kmh SSW 8.5 mph13.7 kmh 29.90 in1012.5 mb 0.00 in0.0 mm 0.00 in0.0 mm 0.00 in0.0 mm
09:53 AM 55.9°F13.3°C 44.4°F6.9°C 65% 4.9 mph SW7.9 kmh SW 10.5 mph16.9 kmh 29.90 in1012.5 mb 0.00 in0.0 mm 0.00 in0.0 mm 0.00 in0.0 mm
09:58 AM 56.1°F13.4°C 45.0°F7.2°C 66% 3.8 mph SE6.1 kmh SE 10.5 mph16.9 kmh 29.90 in1012.5 mb 0.00 in0.0 mm 0.00 in0.0 mm 0.00 in0.0 mm
10:03 AM 56.5°F13.6°C 44.4°F6.9°C 64% 5.6 mph SW9.0 kmh SW 9.6 mph15.4 kmh 29.90 in1012.5 mb 0.00 in0.0 mm 0.00 in0.0 mm 0.00 in0.0 mm
10:08 AM 56.1°F13.4°C 44.1°F6.7°C 64% 6.0 mph S9.7 kmh S 13.9 mph22.4 kmh 29.90 in1012.5 mb 0.00 in0.0 mm 0.00 in0.0 mm 0.00 in0.0 mm
10:13 AM 56.1°F13.4°C 44.6°F7.0°C 65% 5.6 mph SW9.0 kmh SW 11.6 mph18.7 kmh 29.90 in1012.5 mb 0.00 in0.0 mm 0.00 in0.0 mm 0.00 in0.0 mm
10:18 AM 56.5°F13.6°C 44.8°F7.1°C 65% 6.5 mph S10.5 kmh S 11.6 mph18.7 kmh 29.91 in1012.9 mb 0.00 in0.0 mm 0.00 in0.0 mm 0.00 in0.0 mm
10:23 AM 56.3°F13.5°C 45.1°F7.3°C 66% 8.5 mph SW13.7 kmh SW 13.9 mph22.4 kmh 29.91 in1012.9 mb 0.00 in0.0 mm 0.00 in0.0 mm 0.00 in0.0 mm
10:28 AM 56.5°F13.6°C 45.7°F7.6°C 67% 6.7 mph SSW10.8 kmh SSW 11.6 mph18.7 kmh 29.91 in1012.9 mb 0.00 in0.0 mm 0.00 in0.0 mm 0.00 in0.0 mm
10:33 AM 56.5°F13.6°C 45.7°F7.6°C 67% 6.0 mph S9.7 kmh S 12.8 mph20.6 kmh 29.90 in1012.5 mb 0.00 in0.0 mm 0.00 in0.0 mm 0.00 in0.0 mm
10:38 AM 56.5°F13.6°C 45.7°F7.6°C 67% 8.3 mph S13.4 kmh S 15.9 mph25.6 kmh 29.91 in1012.9 mb 0.00 in0.0 mm 0.00 in0.0 mm 0.00 in0.0 mm
10:43 AM 55.9°F13.3°C 47.1°F8.4°C 72% 7.8 mph SW12.6 kmh SW 15.9 mph25.6 kmh 29.91 in1012.9 mb 0.00 in0.0 mm 0.00 in0.0 mm 0.00 in0.0 mm
10:48 AM 55.0°F12.8°C 47.3°F8.5°C 75% 6.9 mph SSW11.1 kmh SSW 11.6 mph18.7 kmh 29.91 in1012.9 mb 0.00 in0.0 mm 0.00 in0.0 mm 0.00 in0.0 mm
10:53 AM 54.3°F12.4°C 48.0°F8.9°C 79% 5.1 mph SW8.2 kmh SW 9.6 mph15.4 kmh 29.91 in1012.9 mb 0.00 in0.0 mm 0.00 in0.0 mm 0.00 in0.0 mm
10:58 AM 54.0°F12.2°C 48.0°F8.9°C 80% 5.4 mph SW8.7 kmh SW 9.6 mph15.4 kmh 29.91 in1012.9 mb 0.00 in0.0 mm 0.00 in0.0 mm 0.00 in0.0 mm
11:03 AM 54.0°F12.2°C 48.0°F8.9°C 80% 3.6 mph SW5.8 kmh SW 7.4 mph11.9 kmh 29.91 in1012.9 mb 0.00 in0.0 mm 0.00 in0.0 mm 0.00 in0.0 mm
11:08 AM 54.3°F12.4°C 48.2°F9.0°C 80% 3.4 mph S5.5 kmh S 6.3 mph10.1 kmh 29.91 in1012.9 mb 0.00 in0.0 mm 0.00 in0.0 mm 0.00 in0.0 mm
11:13 AM 54.7°F12.6°C 48.0°F8.9°C 78% 3.1 mph SW5.0 kmh SW 7.4 mph11.9 kmh 29.91 in1012.9 mb 0.00 in0.0 mm 0.00 in0.0 mm 0.00 in0.0 mm
11:18 AM 54.9°F12.7°C 46.4°F8.0°C 73% 6.9 mph SW11.1 kmh SW 13.9 mph22.4 kmh 29.91 in1012.9 mb 0.00 in0.0 mm 0.00 in0.0 mm 0.00 in0.0 mm
11:23 AM 55.0°F12.8°C 45.5°F7.5°C 70% 4.9 mph SW7.9 kmh SW 11.6 mph18.7 kmh 29.91 in1012.9 mb 0.00 in0.0 mm 0.00 in0.0 mm 0.00 in0.0 mm
11:28 AM 55.4°F13.0°C 45.3°F7.4°C 69% 8.1 mph SW13.0 kmh SW 12.8 mph20.6 kmh 29.91 in1012.9 mb 0.00 in0.0 mm 0.00 in0.0 mm 0.00 in0.0 mm
11:33 AM 55.4°F13.0°C 45.3°F7.4°C 69% 7.8 mph SSW12.6 kmh SSW 12.8 mph20.6 kmh 29.91 in1012.9 mb 0.00 in0.0 mm 0.00 in0.0 mm 0.00 in0.0 mm
11:38 AM 55.8°F13.2°C 45.7°F7.6°C 69% 4.5 mph SW7.2 kmh SW 11.6 mph18.7 kmh 29.91 in1012.9 mb 0.00 in0.0 mm 0.00 in0.0 mm 0.00 in0.0 mm
11:43 AM 55.9°F13.3°C 45.1°F7.3°C 67% 6.0 mph SSW9.7 kmh SSW 12.8 mph20.6 kmh 29.91 in1012.9 mb 0.00 in0.0 mm 0.00 in0.0 mm 0.00 in0.0 mm
11:48 AM 56.1°F13.4°C 45.3°F7.4°C 67% 6.5 mph SSE10.5 kmh SSE 13.9 mph22.4 kmh 29.91 in1012.9 mb 0.00 in0.0 mm 0.00 in0.0 mm 0.00 in0.0 mm
11:53 AM 56.5°F13.6°C 45.3°F7.4°C 66% 7.2 mph WSW11.6 kmh WSW 11.6 mph18.7 kmh 29.91 in1012.9 mb 0.00 in0.0 mm 0.00 in0.0 mm 0.00 in0.0 mm
11:58 AM 56.5°F13.6°C 45.7°F7.6°C 67% 6.9 mph SSW11.1 kmh SSW 11.6 mph18.7 kmh 29.91 in1012.9 mb 0.00 in0.0 mm 0.00 in0.0 mm 0.00 in0.0 mm
12:03 PM 56.7°F13.7°C 45.9°F7.7°C 67% 6.7 mph S10.8 kmh S 14.8 mph23.8 kmh 29.91 in1012.9 mb 0.00 in0.0 mm 0.00 in0.0 mm 0.00 in0.0 mm
12:08 PM 56.7°F13.7°C 45.9°F7.7°C 67% 7.2 mph SW11.6 kmh SW 11.6 mph18.7 kmh 29.91 in1012.9 mb 0.00 in0.0 mm 0.00 in0.0 mm 0.00 in0.0 mm
12:13 PM 56.1°F13.4°C 46.0°F7.8°C 69% 7.4 mph S11.9 kmh S 14.8 mph23.8 kmh 29.91 in1012.9 mb 0.00 in0.0 mm 0.00 in0.0 mm 0.00 in0.0 mm
12:18 PM 55.8°F13.2°C 46.6°F8.1°C 71% 4.5 mph W7.2 kmh W 12.8 mph20.6 kmh 29.91 in1012.9 mb 0.00 in0.0 mm 0.00 in0.0 mm 0.00 in0.0 mm
12:23 PM 55.8°F13.2°C 46.9°F8.3°C 72% 2.9 mph SSW4.7 kmh SSW 8.5 mph13.7 kmh 29.91 in1012.9 mb 0.00 in0.0 mm 0.00 in0.0 mm 0.00 in0.0 mm
12:28 PM 56.1°F13.4°C 47.3°F8.5°C 72% 3.6 mph W5.8 kmh W 8.5 mph13.7 kmh 29.91 in1012.9 mb 0.00 in0.0 mm 0.00 in0.0 mm 0.00 in0.0 mm
12:33 PM 56.5°F13.6°C 47.5°F8.6°C 72% 5.1 mph SSW8.2 kmh SSW 9.6 mph15.4 kmh 29.91 in1012.9 mb 0.00 in0.0 mm 0.00 in0.0 mm 0.00 in0.0 mm
12:38 PM 56.1°F13.4°C 46.8°F8.2°C 71% 6.3 mph SW10.1 kmh SW 12.8 mph20.6 kmh 29.91 in1012.9 mb 0.00 in0.0 mm 0.00 in0.0 mm 0.00 in0.0 mm
12:43 PM 56.1°F13.4°C 46.4°F8.0°C 70% 8.3 mph S13.4 kmh S 12.8 mph20.6 kmh 29.91 in1012.9 mb 0.00 in0.0 mm 0.00 in0.0 mm 0.00 in0.0 mm
12:48 PM 56.5°F13.6°C 47.1°F8.4°C 71% 6.3 mph SW10.1 kmh SW 10.5 mph16.9 kmh 29.91 in1012.9 mb 0.00 in0.0 mm 0.00 in0.0 mm 0.00 in0.0 mm
12:53 PM 56.8°F13.8°C 46.8°F8.2°C 69% 5.1 mph S8.2 kmh S 11.6 mph18.7 kmh 29.90 in1012.5 mb 0.00 in0.0 mm 0.00 in0.0 mm 0.00 in0.0 mm
12:58 PM 57.6°F14.2°C 46.8°F8.2°C 67% 8.5 mph SW13.7 kmh SW 11.6 mph18.7 kmh 29.90 in1012.5 mb 0.00 in0.0 mm 0.00 in0.0 mm 0.00 in0.0 mm
01:03 PM 57.9°F14.4°C 46.2°F7.9°C 65% 8.3 mph S13.4 kmh S 12.8 mph20.6 kmh 29.90 in1012.5 mb 0.00 in0.0 mm 0.00 in0.0 mm 0.00 in0.0 mm
01:08 PM 58.3°F14.6°C 46.2°F7.9°C 64% 7.6 mph SSW12.2 kmh SSW 15.9 mph25.6 kmh 29.90 in1012.5 mb 0.00 in0.0 mm 0.00 in0.0 mm 0.00 in0.0 mm
01:13 PM 58.1°F14.5°C 46.4°F8.0°C 65% 7.4 mph SSW11.9 kmh SSW 17.0 mph27.4 kmh 29.90 in1012.5 mb 0.00 in0.0 mm 0.00 in0.0 mm 0.00 in0.0 mm
01:18 PM 58.5°F14.7°C 45.9°F7.7°C 63% 6.9 mph SW11.1 kmh SW 11.6 mph18.7 kmh 29.90 in1012.5 mb 0.00 in0.0 mm 0.00 in0.0 mm 0.00 in0.0 mm
01:23 PM 58.3°F14.6°C 45.3°F7.4°C 62% 9.4 mph SSW15.1 kmh SSW 13.9 mph22.4 kmh 29.90 in1012.5 mb 0.00 in0.0 mm 0.00 in0.0 mm 0.00 in0.0 mm
01:28 PM 57.9°F14.4°C 45.9°F7.7°C 64% 7.8 mph SSW12.6 kmh SSW 12.8 mph20.6 kmh 29.90 in1012.5 mb 0.00 in0.0 mm 0.00 in0.0 mm 0.00 in0.0 mm
01:33 PM 57.9°F14.4°C 46.6°F8.1°C 66% 6.9 mph S11.1 kmh S 11.6 mph18.7 kmh 29.90 in1012.5 mb 0.00 in0.0 mm 0.00 in0.0 mm 0.00 in0.0 mm
01:38 PM 58.1°F14.5°C 46.0°F7.8°C 64% 6.7 mph SW10.8 kmh SW 13.9 mph22.4 kmh 29.89 in1012.2 mb 0.00 in0.0 mm 0.00 in0.0 mm 0.00 in0.0 mm
01:43 PM 58.3°F14.6°C 46.6°F8.1°C 65% 7.8 mph SW12.6 kmh SW 14.8 mph23.8 kmh 29.89 in1012.2 mb 0.00 in0.0 mm 0.00 in0.0 mm 0.00 in0.0 mm
01:48 PM 58.3°F14.6°C 46.6°F8.1°C 65% 6.5 mph SSW10.5 kmh SSW 14.8 mph23.8 kmh 29.89 in1012.2 mb 0.00 in0.0 mm 0.00 in0.0 mm 0.00 in0.0 mm
01:53 PM 58.5°F14.7°C 46.4°F8.0°C 64% 8.7 mph SW14.0 kmh SW 15.9 mph25.6 kmh 29.89 in1012.2 mb 0.00 in0.0 mm 0.00 in0.0 mm 0.00 in0.0 mm
01:58 PM 58.5°F14.7°C 46.8°F8.2°C 65% 12.8 mph SW20.6 kmh SW 18.1 mph29.1 kmh 29.89 in1012.2 mb 0.00 in0.0 mm 0.00 in0.0 mm 0.00 in0.0 mm
02:03 PM 58.5°F14.7°C 46.8°F8.2°C 65% 10.5 mph SW16.9 kmh SW 13.9 mph22.4 kmh 29.89 in1012.2 mb 0.00 in0.0 mm 0.00 in0.0 mm 0.00 in0.0 mm
02:08 PM 58.3°F14.6°C 46.6°F8.1°C 65% 7.4 mph W11.9 kmh W 13.9 mph22.4 kmh 29.89 in1012.2 mb 0.00 in0.0 mm 0.00 in0.0 mm 0.00 in0.0 mm
02:13 PM 58.1°F14.5°C 46.0°F7.8°C 64% 10.7 mph SW17.2 kmh SW 14.8 mph23.8 kmh 29.89 in1012.2 mb 0.00 in0.0 mm 0.00 in0.0 mm 0.00 in0.0 mm
02:18 PM 57.7°F14.3°C 46.0°F7.8°C 65% 8.7 mph S14.0 kmh S 18.1 mph29.1 kmh 29.88 in1011.9 mb 0.00 in0.0 mm 0.00 in0.0 mm 0.00 in0.0 mm
02:23 PM 57.6°F14.2°C 45.5°F7.5°C 64% 7.4 mph SSW11.9 kmh SSW 14.8 mph23.8 kmh 29.88 in1011.9 mb 0.00 in0.0 mm 0.00 in0.0 mm 0.00 in0.0 mm
02:28 PM 57.2°F14.0°C 45.1°F7.3°C 64% 8.9 mph SW14.3 kmh SW 13.9 mph22.4 kmh 29.88 in1011.9 mb 0.00 in0.0 mm 0.00 in0.0 mm 0.00 in0.0 mm
02:33 PM 57.2°F14.0°C 45.1°F7.3°C 64% 6.3 mph S10.1 kmh S 12.8 mph20.6 kmh 29.88 in1011.9 mb 0.00 in0.0 mm 0.00 in0.0 mm 0.00 in0.0 mm
02:38 PM 57.0°F13.9°C 44.6°F7.0°C 63% 7.6 mph W12.2 kmh W 13.9 mph22.4 kmh 29.88 in1011.9 mb 0.00 in0.0 mm 0.00 in0.0 mm 0.00 in0.0 mm
02:43 PM 56.7°F13.7°C 44.6°F7.0°C 64% 7.4 mph SW11.9 kmh SW 12.8 mph20.6 kmh 29.88 in1011.9 mb 0.00 in0.0 mm 0.00 in0.0 mm 0.00 in0.0 mm
02:48 PM 56.5°F13.6°C 44.8°F7.1°C 65% 6.0 mph S9.7 kmh S 12.8 mph20.6 kmh 29.88 in1011.9 mb 0.00 in0.0 mm 0.00 in0.0 mm 0.00 in0.0 mm
02:53 PM 56.5°F13.6°C 45.3°F7.4°C 66% 5.4 mph SW8.7 kmh SW 10.5 mph16.9 kmh 29.88 in1011.9 mb 0.00 in0.0 mm 0.00 in0.0 mm 0.00 in0.0 mm
02:58 PM 56.1°F13.4°C 45.3°F7.4°C 67% 5.4 mph SW8.7 kmh SW 13.9 mph22.4 kmh 29.88 in1011.9 mb 0.00 in0.0 mm 0.00 in0.0 mm 0.00 in0.0 mm
03:03 PM 56.3°F13.5°C 45.9°F7.7°C 68% 4.7 mph NW7.6 kmh NW 11.6 mph18.7 kmh 29.88 in1011.9 mb 0.00 in0.0 mm 0.00 in0.0 mm 0.00 in0.0 mm
03:08 PM 56.3°F13.5°C 45.9°F7.7°C 68% 7.2 mph S11.6 kmh S 13.9 mph22.4 kmh 29.88 in1011.9 mb 0.00 in0.0 mm 0.00 in0.0 mm 0.00 in0.0 mm
03:13 PM 55.9°F13.3°C 46.2°F7.9°C 70% 4.5 mph SW7.2 kmh SW 11.6 mph18.7 kmh 29.88 in1011.9 mb 0.00 in0.0 mm 0.00 in0.0 mm 0.00 in0.0 mm
03:18 PM 55.2°F12.9°C 47.5°F8.6°C 75% 2.9 mph W4.7 kmh W 10.5 mph16.9 kmh 29.88 in1011.9 mb 0.00 in0.0 mm 0.00 in0.0 mm 0.00 in0.0 mm
03:23 PM 54.5°F12.5°C 47.5°F8.6°C 77% 3.6 mph SSW5.8 kmh SSW 8.5 mph13.7 kmh 29.88 in1011.9 mb 0.00 in0.0 mm 0.00 in0.0 mm 0.00 in0.0 mm
03:28 PM 54.3°F12.4°C 48.2°F9.0°C 80% 2.0 mph SW3.2 kmh SW 5.4 mph8.7 kmh 29.87 in1011.5 mb 0.00 in0.0 mm 0.00 in0.0 mm 0.00 in0.0 mm
03:33 PM 54.7°F12.6°C 48.4°F9.1°C 79% 3.6 mph SW5.8 kmh SW 7.4 mph11.9 kmh 29.87 in1011.5 mb 0.00 in0.0 mm 0.00 in0.0 mm 0.00 in0.0 mm
03:38 PM 55.0°F12.8°C 48.0°F8.9°C 77% 4.5 mph SW7.2 kmh SW 9.6 mph15.4 kmh 29.87 in1011.5 mb 0.00 in0.0 mm 0.00 in0.0 mm 0.00 in0.0 mm
03:43 PM 55.0°F12.8°C 46.9°F8.3°C 74% 5.8 mph SW9.3 kmh SW 12.8 mph20.6 kmh 29.87 in1011.5 mb 0.00 in0.0 mm 0.00 in0.0 mm 0.00 in0.0 mm
03:48 PM 55.0°F12.8°C 46.6°F8.1°C 73% 6.9 mph SSW11.1 kmh SSW 12.8 mph20.6 kmh 29.87 in1011.5 mb 0.00 in0.0 mm 0.00 in0.0 mm 0.00 in0.0 mm
03:53 PM 55.2°F12.9°C 46.4°F8.0°C 72% 4.3 mph SSW6.9 kmh SSW 11.6 mph18.7 kmh 29.87 in1011.5 mb 0.00 in0.0 mm 0.00 in0.0 mm 0.00 in0.0 mm
03:58 PM 55.6°F13.1°C 46.4°F8.0°C 71% 6.5 mph SW10.5 kmh SW 10.5 mph16.9 kmh 29.87 in1011.5 mb 0.00 in0.0 mm 0.00 in0.0 mm 0.00 in0.0 mm
04:03 PM 55.6°F13.1°C 46.4°F8.0°C 71% 5.8 mph SW9.3 kmh SW 10.5 mph16.9 kmh 29.87 in1011.5 mb 0.00 in0.0 mm 0.00 in0.0 mm 0.00 in0.0 mm
04:08 PM 55.6°F13.1°C 46.4°F8.0°C 71% 4.0 mph W6.4 kmh W 10.5 mph16.9 kmh 29.87 in1011.5 mb 0.00 in0.0 mm 0.00 in0.0 mm 0.00 in0.0 mm
04:13 PM 55.9°F13.3°C 46.8°F8.2°C 71% 6.3 mph S10.1 kmh S 9.6 mph15.4 kmh 29.87 in1011.5 mb 0.00 in0.0 mm 0.00 in0.0 mm 0.00 in0.0 mm
04:18 PM 55.9°F13.3°C 46.2°F7.9°C 70% 7.2 mph SSW11.6 kmh SSW 12.8 mph20.6 kmh 29.87 in1011.5 mb 0.00 in0.0 mm 0.00 in0.0 mm 0.00 in0.0 mm
04:23 PM 56.1°F13.4°C 46.8°F8.2°C 71% 4.9 mph S7.9 kmh S 10.5 mph16.9 kmh 29.87 in1011.5 mb 0.00 in0.0 mm 0.00 in0.0 mm 0.00 in0.0 mm
04:28 PM 56.1°F13.4°C 46.8°F8.2°C 71% 4.3 mph SW6.9 kmh SW 8.5 mph13.7 kmh 29.87 in1011.5 mb 0.00 in0.0 mm 0.00 in0.0 mm 0.00 in0.0 mm
04:33 PM 55.9°F13.3°C 46.8°F8.2°C 71% 6.5 mph SW10.5 kmh SW 12.8 mph20.6 kmh 29.87 in1011.5 mb 0.00 in0.0 mm 0.00 in0.0 mm 0.00 in0.0 mm
04:38 PM 56.1°F13.4°C 46.8°F8.2°C 71% 6.3 mph SW10.1 kmh SW 11.6 mph18.7 kmh 29.87 in1011.5 mb 0.00 in0.0 mm 0.00 in0.0 mm 0.00 in0.0 mm
04:43 PM 55.9°F13.3°C 46.8°F8.2°C 71% 6.3 mph SSW10.1 kmh SSW 11.6 mph18.7 kmh 29.87 in1011.5 mb 0.00 in0.0 mm 0.00 in0.0 mm 0.00 in0.0 mm
04:48 PM 55.8°F13.2°C 46.9°F8.3°C 72% 4.3 mph SSW6.9 kmh SSW 11.6 mph18.7 kmh 29.87 in1011.5 mb 0.00 in0.0 mm 0.00 in0.0 mm 0.00 in0.0 mm
04:53 PM 55.8°F13.2°C 46.9°F8.3°C 72% 7.8 mph WSW12.6 kmh WSW 14.8 mph23.8 kmh 29.87 in1011.5 mb 0.00 in0.0 mm 0.00 in0.0 mm 0.00 in0.0 mm
04:58 PM 55.6°F13.1°C 47.5°F8.6°C 74% 4.3 mph SW6.9 kmh SW 11.6 mph18.7 kmh 29.87 in1011.5 mb 0.00 in0.0 mm 0.00 in0.0 mm 0.00 in0.0 mm
05:03 PM 55.6°F13.1°C 47.1°F8.4°C 73% 5.8 mph SW9.3 kmh SW 11.6 mph18.7 kmh 29.87 in1011.5 mb 0.00 in0.0 mm 0.00 in0.0 mm 0.00 in0.0 mm
05:08 PM 55.4°F13.0°C 46.9°F8.3°C 73% 6.5 mph SW10.5 kmh SW 11.6 mph18.7 kmh 29.87 in1011.5 mb 0.00 in0.0 mm 0.00 in0.0 mm 0.00 in0.0 mm
05:13 PM 55.2°F12.9°C 47.1°F8.4°C 74% 7.6 mph SSW12.2 kmh SSW 13.9 mph22.4 kmh 29.87 in1011.5 mb 0.00 in0.0 mm 0.00 in0.0 mm 0.00 in0.0 mm
05:18 PM 55.4°F13.0°C 47.3°F8.5°C 74% 4.7 mph SW7.6 kmh SW 9.6 mph15.4 kmh 29.87 in1011.5 mb 0.00 in0.0 mm 0.00 in0.0 mm 0.00 in0.0 mm
05:23 PM 55.4°F13.0°C 46.9°F8.3°C 73% 6.9 mph W11.1 kmh W 10.5 mph16.9 kmh 29.87 in1011.5 mb 0.00 in0.0 mm 0.00 in0.0 mm 0.00 in0.0 mm
05:28 PM 55.2°F12.9°C 46.4°F8.0°C 72% 5.6 mph SSW9.0 kmh SSW 11.6 mph18.7 kmh 29.87 in1011.5 mb 0.00 in0.0 mm 0.00 in0.0 mm 0.00 in0.0 mm
05:33 PM 55.2°F12.9°C 46.4°F8.0°C 72% 3.6 mph SW5.8 kmh SW 10.5 mph16.9 kmh 29.87 in1011.5 mb 0.00 in0.0 mm 0.00 in0.0 mm 0.00 in0.0 mm
05:38 PM 55.4°F13.0°C 46.2°F7.9°C 71% 6.7 mph SSW10.8 kmh SSW 11.6 mph18.7 kmh 29.87 in1011.5 mb 0.00 in0.0 mm 0.00 in0.0 mm 0.00 in0.0 mm
05:43 PM 55.2°F12.9°C 46.0°F7.8°C 71% 6.0 mph SW9.7 kmh SW 10.5 mph16.9 kmh 29.88 in1011.9 mb 0.00 in0.0 mm 0.00 in0.0 mm 0.00 in0.0 mm
05:48 PM 55.2°F12.9°C 45.7°F7.6°C 70% 6.3 mph S10.1 kmh S 12.8 mph20.6 kmh 29.88 in1011.9 mb 0.00 in0.0 mm 0.00 in0.0 mm 0.00 in0.0 mm
05:53 PM 55.2°F12.9°C 45.7°F7.6°C 70% 4.7 mph SW7.6 kmh SW 10.5 mph16.9 kmh 29.88 in1011.9 mb 0.00 in0.0 mm 0.00 in0.0 mm 0.00 in0.0 mm
05:58 PM 55.2°F12.9°C 45.7°F7.6°C 70% 5.1 mph SW8.2 kmh SW 8.5 mph13.7 kmh 29.88 in1011.9 mb 0.00 in0.0 mm 0.00 in0.0 mm 0.00 in0.0 mm
06:03 PM 55.2°F12.9°C 45.1°F7.3°C 69% 6.7 mph WSW10.8 kmh WSW 11.6 mph18.7 kmh 29.88 in1011.9 mb 0.00 in0.0 mm 0.00 in0.0 mm 0.00 in0.0 mm
06:08 PM 55.0°F12.8°C 45.5°F7.5°C 70% 5.8 mph SSW9.3 kmh SSW 11.6 mph18.7 kmh 29.88 in1011.9 mb 0.00 in0.0 mm 0.00 in0.0 mm 0.00 in0.0 mm
06:13 PM 55.0°F12.8°C 45.5°F7.5°C 70% 4.9 mph WSW7.9 kmh WSW 13.9 mph22.4 kmh 29.88 in1011.9 mb 0.00 in0.0 mm 0.00 in0.0 mm 0.00 in0.0 mm
06:18 PM 55.0°F12.8°C 45.9°F7.7°C 71% 4.7 mph SW7.6 kmh SW 8.5 mph13.7 kmh 29.88 in1011.9 mb 0.00 in0.0 mm 0.00 in0.0 mm 0.00 in0.0 mm
06:23 PM 55.0°F12.8°C 45.5°F7.5°C 70% 3.8 mph WSW6.1 kmh WSW 9.6 mph15.4 kmh 29.88 in1011.9 mb 0.00 in0.0 mm 0.00 in0.0 mm 0.00 in0.0 mm
06:28 PM 55.0°F12.8°C 45.9°F7.7°C 71% 4.3 mph SSW6.9 kmh SSW 9.6 mph15.4 kmh 29.88 in1011.9 mb 0.00 in0.0 mm 0.00 in0.0 mm 0.00 in0.0 mm
06:33 PM 55.0°F12.8°C 45.9°F7.7°C 71% 3.8 mph SSW6.1 kmh SSW 7.4 mph11.9 kmh 29.89 in1012.2 mb 0.00 in0.0 mm 0.00 in0.0 mm 0.00 in0.0 mm
06:38 PM 54.9°F12.7°C 46.4°F8.0°C 73% 4.9 mph SW7.9 kmh SW 8.5 mph13.7 kmh 29.89 in1012.2 mb 0.00 in0.0 mm 0.00 in0.0 mm 0.00 in0.0 mm
06:43 PM 54.7°F12.6°C 46.2°F7.9°C 73% 4.5 mph SW7.2 kmh SW 9.6 mph15.4 kmh 29.89 in1012.2 mb 0.00 in0.0 mm 0.00 in0.0 mm 0.00 in0.0 mm
06:48 PM 54.7°F12.6°C 46.2°F7.9°C 73% 4.3 mph SW6.9 kmh SW 8.5 mph13.7 kmh 29.89 in1012.2 mb 0.00 in0.0 mm 0.00 in0.0 mm 0.00 in0.0 mm
06:53 PM 54.5°F12.5°C 46.0°F7.8°C 73% 4.0 mph SW6.4 kmh SW 8.5 mph13.7 kmh 29.89 in1012.2 mb 0.00 in0.0 mm 0.00 in0.0 mm 0.00 in0.0 mm
06:58 PM 54.3°F12.4°C 45.9°F7.7°C 73% 2.7 mph WSW4.3 kmh WSW 7.4 mph11.9 kmh 29.89 in1012.2 mb 0.00 in0.0 mm 0.00 in0.0 mm 0.00 in0.0 mm
07:03 PM 54.3°F12.4°C 45.5°F7.5°C 72% 2.7 mph SSW4.3 kmh SSW 6.3 mph10.1 kmh 29.90 in1012.5 mb 0.00 in0.0 mm 0.00 in0.0 mm 0.00 in0.0 mm
07:08 PM 54.3°F12.4°C 45.5°F7.5°C 72% 2.7 mph WSW4.3 kmh WSW 6.3 mph10.1 kmh 29.89 in1012.2 mb 0.00 in0.0 mm 0.00 in0.0 mm 0.00 in0.0 mm
07:13 PM 54.3°F12.4°C 45.5°F7.5°C 72% 2.7 mph SW4.3 kmh SW 6.3 mph10.1 kmh 29.89 in1012.2 mb 0.00 in0.0 mm 0.00 in0.0 mm 0.00 in0.0 mm
07:18 PM 54.5°F12.5°C 46.0°F7.8°C 73% 1.3 mph SW2.1 kmh SW 5.4 mph8.7 kmh 29.90 in1012.5 mb 0.00 in0.0 mm 0.00 in0.0 mm 0.00 in0.0 mm
07:23 PM 54.5°F12.5°C 46.0°F7.8°C 73% 1.1 mph WSW1.8 kmh WSW 5.4 mph8.7 kmh 29.90 in1012.5 mb 0.00 in0.0 mm 0.00 in0.0 mm 0.00 in0.0 mm
07:28 PM 54.5°F12.5°C 46.0°F7.8°C 73% 1.3 mph SSW2.1 kmh SSW 5.4 mph8.7 kmh 29.90 in1012.5 mb 0.00 in0.0 mm 0.00 in0.0 mm 0.00 in0.0 mm
07:38 PM 54.7°F12.6°C 46.2°F7.9°C 73% 3.6 mph SW5.8 kmh SW 8.5 mph13.7 kmh 29.90 in1012.5 mb 0.00 in0.0 mm 0.00 in0.0 mm 0.00 in0.0 mm
07:43 PM 54.7°F12.6°C 46.6°F8.1°C 74% 5.8 mph S9.3 kmh S 10.5 mph16.9 kmh 29.90 in1012.5 mb 0.00 in0.0 mm 0.00 in0.0 mm 0.00 in0.0 mm
07:48 PM 54.5°F12.5°C 47.1°F8.4°C 76% 4.0 mph SSW6.4 kmh SSW 7.4 mph11.9 kmh 29.90 in1012.5 mb 0.00 in0.0 mm 0.00 in0.0 mm 0.00 in0.0 mm
07:53 PM 54.3°F12.4°C 47.3°F8.5°C 77% 2.0 mph SE3.2 kmh SE 5.4 mph8.7 kmh 29.90 in1012.5 mb 0.00 in0.0 mm 0.00 in0.0 mm 0.00 in0.0 mm
07:58 PM 54.1°F12.3°C 47.8°F8.8°C 79% 1.8 mph SW2.9 kmh SW 6.3 mph10.1 kmh 29.90 in1012.5 mb 0.02 in0.5 mm 0.24 in6.1 mm 0.02 in0.5 mm
08:03 PM 54.0°F12.2°C 48.0°F8.9°C 80% 0.9 mph SW1.4 kmh SW 3.1 mph5.0 kmh 29.90 in1012.5 mb 0.06 in1.5 mm 0.04 in1.0 mm 0.06 in1.5 mm
08:08 PM 53.6°F12.0°C 48.6°F9.2°C 83% 0.7 mph SE1.1 kmh SE 2.0 mph3.2 kmh 29.90 in1012.5 mb 0.06 in1.5 mm 0.00 in0.0 mm 0.06 in1.5 mm
08:13 PM 53.4°F11.9°C 48.7°F9.3°C 84% 0.2 mph SW0.3 kmh SW 3.1 mph5.0 kmh 29.90 in1012.5 mb 0.06 in1.5 mm 0.00 in0.0 mm 0.06 in1.5 mm
08:18 PM 53.4°F11.9°C 49.1°F9.5°C 85% 1.1 mph SW1.8 kmh SW 2.0 mph3.2 kmh 29.90 in1012.5 mb 0.06 in1.5 mm 0.00 in0.0 mm 0.06 in1.5 mm
08:23 PM 53.2°F11.8°C 48.9°F9.4°C 85% 1.8 mph SSW2.9 kmh SSW 5.4 mph8.7 kmh 29.90 in1012.5 mb 0.06 in1.5 mm 0.00 in0.0 mm 0.06 in1.5 mm
08:28 PM 53.2°F11.8°C 48.9°F9.4°C 85% 1.1 mph SSW1.8 kmh SSW 4.3 mph6.9 kmh 29.90 in1012.5 mb 0.06 in1.5 mm 0.00 in0.0 mm 0.06 in1.5 mm
08:33 PM 53.2°F11.8°C 49.1°F9.5°C 86% 2.0 mph S3.2 kmh S 4.3 mph6.9 kmh 29.90 in1012.5 mb 0.06 in1.5 mm 0.00 in0.0 mm 0.06 in1.5 mm
08:38 PM 53.1°F11.7°C 48.9°F9.4°C 86% 1.1 mph SSE1.8 kmh SSE 4.3 mph6.9 kmh 29.90 in1012.5 mb 0.06 in1.5 mm 0.00 in0.0 mm 0.06 in1.5 mm
08:43 PM 53.1°F11.7°C 48.9°F9.4°C 86% 1.8 mph S2.9 kmh S 4.3 mph6.9 kmh 29.91 in1012.9 mb 0.06 in1.5 mm 0.00 in0.0 mm 0.06 in1.5 mm
08:48 PM 53.1°F11.7°C 48.9°F9.4°C 86% Calm Calm 3.1 mph5.0 kmh 29.91 in1012.9 mb 0.06 in1.5 mm 0.00 in0.0 mm 0.06 in1.5 mm
08:53 PM 53.1°F11.7°C 48.9°F9.4°C 86% 0.4 mph WSW0.6 kmh WSW 3.1 mph5.0 kmh 29.91 in1012.9 mb 0.06 in1.5 mm 0.00 in0.0 mm 0.06 in1.5 mm
08:58 PM 53.1°F11.7°C 48.9°F9.4°C 86% 0.9 mph SE1.4 kmh SE 3.1 mph5.0 kmh 29.91 in1012.9 mb 0.04 in1.0 mm 0.00 in0.0 mm 0.06 in1.5 mm
09:03 PM 53.1°F11.7°C 48.9°F9.4°C 86% 1.3 mph SE2.1 kmh SE 3.1 mph5.0 kmh 29.91 in1012.9 mb 0.00 in0.0 mm 0.00 in0.0 mm 0.06 in1.5 mm
09:08 PM 52.9°F11.6°C 48.7°F9.3°C 86% 2.0 mph SSW3.2 kmh SSW 4.3 mph6.9 kmh 29.90 in1012.5 mb 0.00 in0.0 mm 0.00 in0.0 mm 0.06 in1.5 mm
09:13 PM 52.9°F11.6°C 48.6°F9.2°C 85% 1.6 mph S2.6 kmh S 4.3 mph6.9 kmh 29.90 in1012.5 mb 0.00 in0.0 mm 0.00 in0.0 mm 0.06 in1.5 mm
09:18 PM 52.9°F11.6°C 48.7°F9.3°C 86% Calm Calm 3.1 mph5.0 kmh 29.90 in1012.5 mb 0.00 in0.0 mm 0.00 in0.0 mm 0.06 in1.5 mm
09:23 PM 52.9°F11.6°C 48.6°F9.2°C 85% 0.4 mph S0.6 kmh S 2.0 mph3.2 kmh 29.90 in1012.5 mb 0.00 in0.0 mm 0.00 in0.0 mm 0.06 in1.5 mm
09:28 PM 52.9°F11.6°C 48.6°F9.2°C 85% Calm Calm 1.1 mph1.8 kmh 29.90 in1012.5 mb 0.00 in0.0 mm 0.00 in0.0 mm 0.06 in1.5 mm
09:33 PM 52.9°F11.6°C 48.6°F9.2°C 85% 0.2 mph SSW0.3 kmh SSW 1.1 mph1.8 kmh 29.90 in1012.5 mb 0.00 in0.0 mm 0.00 in0.0 mm 0.06 in1.5 mm
09:38 PM 52.9°F11.6°C 48.7°F9.3°C 86% Calm Calm -- 29.90 in1012.5 mb 0.00 in0.0 mm 0.00 in0.0 mm 0.06 in1.5 mm
09:43 PM 52.7°F11.5°C 48.6°F9.2°C 86% Calm Calm -- 29.90 in1012.5 mb 0.00 in0.0 mm 0.00 in0.0 mm 0.06 in1.5 mm
09:48 PM 52.5°F11.4°C 48.4°F9.1°C 86% Calm Calm -- 29.90 in1012.5 mb 0.00 in0.0 mm 0.00 in0.0 mm 0.06 in1.5 mm
09:53 PM 52.9°F11.6°C 49.1°F9.5°C 87% 0.4 mph NW0.6 kmh NW 1.1 mph1.8 kmh 29.90 in1012.5 mb 0.00 in0.0 mm 0.00 in0.0 mm 0.06 in1.5 mm
09:58 PM 52.9°F11.6°C 49.5°F9.7°C 88% 0.4 mph NW0.6 kmh NW 2.0 mph3.2 kmh 29.91 in1012.9 mb 0.00 in0.0 mm 0.00 in0.0 mm 0.06 in1.5 mm
10:03 PM 52.7°F11.5°C 49.3°F9.6°C 88% 1.3 mph NW2.1 kmh NW 3.1 mph5.0 kmh 29.91 in1012.9 mb 0.00 in0.0 mm 0.00 in0.0 mm 0.06 in1.5 mm
10:08 PM 52.5°F11.4°C 49.5°F9.7°C 89% 2.5 mph N4.0 kmh N 4.3 mph6.9 kmh 29.91 in1012.9 mb 0.00 in0.0 mm 0.00 in0.0 mm 0.06 in1.5 mm
10:13 PM 52.5°F11.4°C 49.5°F9.7°C 89% 0.7 mph NW1.1 kmh NW 4.3 mph6.9 kmh 29.91 in1012.9 mb 0.01 in0.3 mm 0.12 in3.0 mm 0.07 in1.8 mm
10:18 PM 52.2°F11.2°C 49.1°F9.5°C 89% 0.2 mph NNE0.3 kmh NNE 3.1 mph5.0 kmh 29.91 in1012.9 mb 0.04 in1.0 mm 0.36 in9.1 mm 0.10 in2.5 mm
10:23 PM 52.0°F11.1°C 49.1°F9.5°C 90% Calm Calm -- 29.91 in1012.9 mb 0.06 in1.5 mm 0.24 in6.1 mm 0.12 in3.0 mm
10:28 PM 52.0°F11.1°C 49.1°F9.5°C 90% Calm Calm -- 29.90 in1012.5 mb 0.09 in2.3 mm 0.36 in9.1 mm 0.15 in3.8 mm
10:33 PM 52.0°F11.1°C 49.5°F9.7°C 91% Calm Calm -- 29.91 in1012.9 mb 0.10 in2.5 mm 0.12 in3.0 mm 0.16 in4.1 mm
10:38 PM 51.8°F11.0°C 49.3°F9.6°C 91% Calm Calm 1.1 mph1.8 kmh 29.91 in1012.9 mb 0.10 in2.5 mm 0.00 in0.0 mm 0.16 in4.1 mm
10:43 PM 51.6°F10.9°C 49.1°F9.5°C 91% Calm Calm -- 29.91 in1012.9 mb 0.11 in2.8 mm 0.12 in3.0 mm 0.17 in4.3 mm
10:48 PM 51.6°F10.9°C 49.1°F9.5°C 91% 0.2 mph SE0.3 kmh SE 1.1 mph1.8 kmh 29.91 in1012.9 mb 0.11 in2.8 mm 0.00 in0.0 mm 0.17 in4.3 mm
10:53 PM 51.6°F10.9°C 49.1°F9.5°C 91% 0.7 mph SSE1.1 kmh SSE 2.0 mph3.2 kmh 29.91 in1012.9 mb 0.12 in3.0 mm 0.12 in3.0 mm 0.18 in4.6 mm
10:58 PM 51.4°F10.8°C 48.9°F9.4°C 91% 0.2 mph SE0.3 kmh SE 2.0 mph3.2 kmh 29.91 in1012.9 mb 0.12 in3.0 mm 0.00 in0.0 mm 0.18 in4.6 mm
11:03 PM 51.4°F10.8°C 48.9°F9.4°C 91% Calm Calm -- 29.90 in1012.5 mb 0.12 in3.0 mm 0.00 in0.0 mm 0.18 in4.6 mm
11:08 PM 51.4°F10.8°C 48.9°F9.4°C 91% Calm Calm -- 29.90 in1012.5 mb 0.12 in3.0 mm 0.00 in0.0 mm 0.18 in4.6 mm
11:13 PM 51.3°F10.7°C 48.7°F9.3°C 91% Calm Calm -- 29.90 in1012.5 mb 0.11 in2.8 mm 0.00 in0.0 mm 0.18 in4.6 mm
11:18 PM 51.3°F10.7°C 49.1°F9.5°C 92% Calm Calm -- 29.90 in1012.5 mb 0.08 in2.0 mm 0.00 in0.0 mm 0.18 in4.6 mm
11:23 PM 51.1°F10.6°C 48.9°F9.4°C 92% Calm Calm -- 29.90 in1012.5 mb 0.06 in1.5 mm 0.00 in0.0 mm 0.18 in4.6 mm
11:28 PM 51.1°F10.6°C 48.9°F9.4°C 92% Calm Calm 1.1 mph1.8 kmh 29.90 in1012.5 mb 0.03 in0.8 mm 0.00 in0.0 mm 0.18 in4.6 mm
11:33 PM 51.1°F10.6°C 48.9°F9.4°C 92% Calm Calm -- 29.90 in1012.5 mb 0.02 in0.5 mm 0.00 in0.0 mm 0.18 in4.6 mm
11:38 PM 50.9°F10.5°C 48.7°F9.3°C 92% Calm Calm -- 29.90 in1012.5 mb 0.02 in0.5 mm 0.00 in0.0 mm 0.18 in4.6 mm
11:43 PM 51.1°F10.6°C 48.9°F9.4°C 92% Calm Calm -- 29.90 in1012.5 mb 0.01 in0.3 mm 0.00 in0.0 mm 0.18 in4.6 mm
11:48 PM 51.1°F10.6°C 48.9°F9.4°C 92% Calm Calm 1.1 mph1.8 kmh 29.90 in1012.5 mb 0.01 in0.3 mm 0.00 in0.0 mm 0.18 in4.6 mm
11:53 PM 51.1°F10.6°C 48.9°F9.4°C 92% Calm Calm -- 29.90 in1012.5 mb 0.00 in0.0 mm 0.00 in0.0 mm 0.18 in4.6 mm
11:58 PM 51.1°F10.6°C 48.9°F9.4°C 92% Calm Calm -- 29.90 in1012.5 mb 0.00 in0.0 mm 0.00 in0.0 mm 0.18 in4.6 mm